Time,TemperatureF,DewpointF,PressureIn,WindDirection,WindDirectionDegrees,WindSpeedMPH,WindSpeedGustMPH,Humidity,HourlyPrecipIn,Conditions,Clouds,dailyrainin,SoftwareType,DateUTC
2013-01-07 00:22:00,49.0,47.0,30.01,North,10,1.0,-999.0,94,0.00,,,-99.99,,2013-01-07 08:22:00,
2013-01-07 00:32:00,49.0,47.0,30.01,North,10,1.0,-999.0,94,0.00,,,-99.99,,2013-01-07 08:32:00,
2013-01-07 00:42:00,49.0,47.0,30.01,North,10,1.0,-999.0,94,0.00,,,-99.99,,2013-01-07 08:42:00,
2013-01-07 01:22:00,48.0,46.0,30.00,North,10,3.0,-999.0,94,0.00,,,-99.99,,2013-01-07 09:22:00,
2013-01-07 01:32:00,48.0,46.0,30.00,North,10,3.0,-999.0,94,0.00,,,-99.99,,2013-01-07 09:32:00,
2013-01-07 01:42:00,48.0,46.0,30.00,North,10,3.0,-999.0,94,0.00,,,-99.99,,2013-01-07 09:42:00,
2013-01-07 02:22:00,48.0,46.0,29.98,North,0,0.0,-999.0,94,0.01,,,-99.99,,2013-01-07 10:22:00,
2013-01-07 02:32:00,48.0,46.0,29.98,North,0,0.0,-999.0,94,0.01,,,-99.99,,2013-01-07 10:32:00,
2013-01-07 02:42:00,48.0,46.0,29.98,North,0,0.0,-999.0,94,0.01,,,-99.99,,2013-01-07 10:42:00,
2013-01-07 03:22:00,48.0,47.0,29.98,WNW,300,6.0,-999.0,95,0.00,,,-99.99,,2013-01-07 11:22:00,
2013-01-07 03:32:00,48.0,47.0,29.98,WNW,300,6.0,-999.0,95,0.00,,,-99.99,,2013-01-07 11:32:00,
2013-01-07 03:43:00,48.0,47.0,29.98,WNW,300,6.0,-999.0,95,0.00,,,-99.99,,2013-01-07 11:43:00,
2013-01-07 04:22:00,47.0,46.0,29.98,WNW,300,1.0,-999.0,95,0.00,,,-99.99,,2013-01-07 12:22:00,
2013-01-07 04:32:00,47.0,46.0,29.98,WNW,300,1.0,-999.0,95,0.00,,,-99.99,,2013-01-07 12:32:00,
2013-01-07 04:43:00,47.0,46.0,29.98,WNW,300,1.0,-999.0,95,0.00,,,-99.99,,2013-01-07 12:43:00,
2013-01-07 05:23:00,48.0,46.0,29.98,North,0,0.0,-999.0,92,0.00,,,-99.99,,2013-01-07 13:23:00,
2013-01-07 05:33:00,48.0,46.0,29.98,North,0,0.0,-999.0,92,0.00,,,-99.99,,2013-01-07 13:33:00,
2013-01-07 05:42:00,48.0,46.0,29.98,North,0,0.0,-999.0,92,0.00,,,-99.99,,2013-01-07 13:42:00,
2013-01-07 06:22:00,47.0,44.0,30.01,North,0,0.0,-999.0,89,0.00,,,-99.99,,2013-01-07 14:22:00,
2013-01-07 06:33:00,47.0,44.0,30.01,North,0,0.0,-999.0,89,0.00,,,-99.99,,2013-01-07 14:33:00,
2013-01-07 06:42:00,47.0,44.0,30.01,North,0,0.0,-999.0,89,0.00,,,-99.99,,2013-01-07 14:42:00,
2013-01-07 07:22:00,50.0,45.0,30.03,North,0,0.0,-999.0,84,0.00,,,-99.99,,2013-01-07 15:22:00,
2013-01-07 07:33:00,50.0,45.0,30.03,North,0,0.0,-999.0,84,0.00,,,-99.99,,2013-01-07 15:33:00,
2013-01-07 07:42:00,50.0,45.0,30.03,North,0,0.0,-999.0,84,0.00,,,-99.99,,2013-01-07 15:42:00,
2013-01-07 08:22:00,51.0,44.0,30.04,NNW,330,9.0,-999.0,78,0.00,,,-99.99,,2013-01-07 16:22:00,
2013-01-07 08:33:00,51.0,44.0,30.04,NNW,330,9.0,-999.0,78,0.00,,,-99.99,,2013-01-07 16:33:00,
2013-01-07 08:43:00,51.0,44.0,30.04,NNW,330,9.0,-999.0,78,0.00,,,-99.99,,2013-01-07 16:43:00,
2013-01-07 09:22:00,54.0,46.0,30.07,NNW,330,3.0,-999.0,73,0.00,,,-99.99,,2013-01-07 17:22:00,
2013-01-07 09:32:00,54.0,46.0,30.07,NNW,330,3.0,-999.0,73,0.00,,,-99.99,,2013-01-07 17:32:00,
2013-01-07 09:42:00,54.0,46.0,30.07,NNW,330,3.0,-999.0,73,0.00,,,-99.99,,2013-01-07 17:42:00,
2013-01-07 10:23:00,57.0,47.0,30.07,NW,320,3.0,-999.0,70,0.00,,,-99.99,,2013-01-07 18:23:00,
2013-01-07 10:32:00,57.0,47.0,30.07,NW,320,3.0,-999.0,70,0.00,,,-99.99,,2013-01-07 18:32:00,
2013-01-07 10:42:00,57.0,47.0,30.07,NW,320,3.0,-999.0,70,0.00,,,-99.99,,2013-01-07 18:42:00,
2013-01-07 11:22:00,59.0,48.0,30.06,North,360,5.0,-999.0,67,0.00,,,-99.99,,2013-01-07 19:22:00,
2013-01-07 11:33:00,59.0,48.0,30.06,North,360,5.0,-999.0,67,0.00,,,-99.99,,2013-01-07 19:33:00,
2013-01-07 12:22:00,63.0,40.0,30.02,ENE,60,2.0,-999.0,43,0.00,,,-99.99,,2013-01-07 20:22:00,
2013-01-07 12:33:00,63.0,40.0,30.02,ENE,60,2.0,-999.0,43,0.00,,,-99.99,,2013-01-07 20:33:00,
2013-01-07 12:42:00,63.0,40.0,30.02,ENE,60,2.0,-999.0,43,0.00,,,-99.99,,2013-01-07 20:42:00,
2013-01-07 13:22:00,62.0,47.0,29.99,NNE,30,2.0,-999.0,57,0.00,,,-99.99,,2013-01-07 21:22:00,
2013-01-07 13:32:00,62.0,47.0,29.99,NNE,30,2.0,-999.0,57,0.00,,,-99.99,,2013-01-07 21:32:00,
2013-01-07 14:22:00,61.0,50.0,29.97,North,360,5.0,-999.0,68,0.00,,,-99.99,,2013-01-07 22:22:00,
2013-01-07 14:33:00,61.0,50.0,29.97,North,360,5.0,-999.0,68,0.00,,,-99.99,,2013-01-07 22:33:00,
2013-01-07 15:22:00,59.0,50.0,29.96,South,190,3.0,-999.0,73,0.00,,,-99.99,,2013-01-07 23:22:00,
2013-01-07 15:32:00,59.0,50.0,29.96,South,190,3.0,-999.0,73,0.00,,,-99.99,,2013-01-07 23:32:00,
2013-01-07 15:42:00,59.0,50.0,29.96,South,190,3.0,-999.0,73,0.00,,,-99.99,,2013-01-07 23:42:00,
2013-01-07 16:22:00,60.0,51.0,29.97,WSW,250,4.0,-999.0,71,0.00,,,-99.99,,2013-01-08 00:22:00,
2013-01-07 16:32:00,60.0,51.0,29.97,WSW,250,4.0,-999.0,71,0.00,,,-99.99,,2013-01-08 00:32:00,
2013-01-07 17:22:00,59.0,47.0,29.98,North,360,2.0,-999.0,65,0.00,,,-99.99,,2013-01-08 01:22:00,
2013-01-07 17:32:00,59.0,47.0,29.98,North,360,2.0,-999.0,65,0.00,,,-99.99,,2013-01-08 01:32:00,
2013-01-07 17:42:00,59.0,47.0,29.98,North,360,2.0,-999.0,65,0.00,,,-99.99,,2013-01-08 01:42:00,
2013-01-07 18:22:00,57.0,44.0,29.99,West,270,1.0,-999.0,62,0.00,,,-99.99,,2013-01-08 02:22:00,
2013-01-07 18:32:00,57.0,44.0,29.99,West,270,1.0,-999.0,62,0.00,,,-99.99,,2013-01-08 02:32:00,
2013-01-07 18:42:00,57.0,44.0,29.99,West,270,1.0,-999.0,62,0.00,,,-99.99,,2013-01-08 02:42:00,
2013-01-07 19:22:00,57.0,50.0,29.99,SSW,210,3.0,-999.0,76,0.00,,,-99.99,,2013-01-08 03:22:00,
2013-01-07 19:32:00,57.0,50.0,29.99,SSW,210,3.0,-999.0,76,0.00,,,-99.99,,2013-01-08 03:32:00,
2013-01-07 19:42:00,57.0,50.0,29.99,SSW,210,3.0,-999.0,76,0.00,,,-99.99,,2013-01-08 03:42:00,
2013-01-07 20:22:00,55.0,48.0,30.00,NW,310,1.0,-999.0,77,0.00,,,-99.99,,2013-01-08 04:22:00,
2013-01-07 20:32:00,55.0,48.0,30.00,NW,310,1.0,-999.0,77,0.00,,,-99.99,,2013-01-08 04:32:00,
2013-01-07 20:42:00,55.0,48.0,30.00,NW,310,1.0,-999.0,77,0.00,,,-99.99,,2013-01-08 04:42:00,
2013-01-07 21:22:00,53.0,46.0,30.01,NW,310,2.0,-999.0,77,0.00,,,-99.99,,2013-01-08 05:22:00,
2013-01-07 21:33:00,53.0,46.0,30.01,NW,310,2.0,-999.0,77,0.00,,,-99.99,,2013-01-08 05:33:00,
2013-01-07 21:42:00,53.0,46.0,30.01,NW,310,2.0,-999.0,77,0.00,,,-99.99,,2013-01-08 05:42:00,
2013-01-07 22:22:00,51.0,42.0,30.01,NW,320,3.0,-999.0,72,0.00,,,-99.99,,2013-01-08 06:22:00,
2013-01-07 22:32:00,51.0,42.0,30.01,NW,320,3.0,-999.0,72,0.00,,,-99.99,,2013-01-08 06:32:00,
2013-01-07 22:42:00,51.0,42.0,30.01,NW,320,3.0,-999.0,72,0.00,,,-99.99,,2013-01-08 06:42:00,
2013-01-07 23:22:00,51.0,43.0,30.02,North,0,0.0,-999.0,74,0.00,,,-99.99,,2013-01-08 07:22:00,
2013-01-07 23:32:00,51.0,43.0,30.02,North,0,0.0,-999.0,74,0.00,,,-99.99,,2013-01-08 07:32:00,
2013-01-07 23:42:00,51.0,43.0,30.02,North,0,0.0,-999.0,74,0.00,,,-99.99,,2013-01-08 07:42:00,